createdAt,value
2018-02-05T00:00:14.953Z,25.30
2018-02-05T00:02:46.224Z,25.40
2018-02-05T00:05:16.673Z,25.40
2018-02-05T00:07:47.083Z,25.40
2018-02-05T00:10:18.078Z,25.50
2018-02-05T00:12:48.594Z,25.50
2018-02-05T00:15:20.154Z,25.60
2018-02-05T00:17:50.959Z,25.70
2018-02-05T00:20:21.415Z,25.70
2018-02-05T00:22:51.909Z,25.70
2018-02-05T00:25:22.511Z,25.80
2018-02-05T00:27:53.313Z,25.90
2018-02-05T00:30:23.770Z,26.00
2018-02-05T00:32:54.228Z,26.00
2018-02-05T00:35:25.543Z,26.10
2018-02-05T00:37:56.830Z,26.30
2018-02-05T00:40:27.826Z,26.30
2018-02-05T00:42:59.114Z,26.40
2018-02-05T00:45:29.916Z,26.40
2018-02-05T00:48:00.372Z,26.50
2018-02-05T00:50:30.848Z,26.50
2018-02-05T00:53:02.102Z,26.60
2018-02-05T00:55:34.106Z,26.70
2018-02-05T00:58:05.040Z,26.70
2018-02-05T01:00:35.676Z,26.80
2018-02-05T01:03:06.830Z,26.80
2018-02-05T01:05:37.570Z,26.90
2018-02-05T01:08:08.593Z,27.00
2018-02-05T01:10:39.118Z,27.00
2018-02-05T01:13:10.319Z,27.10
2018-02-05T01:15:41.951Z,27.20
2018-02-05T01:18:12.366Z,27.10
2018-02-05T01:20:42.841Z,27.20
2018-02-05T01:23:14.064Z,27.30
2018-02-05T01:25:44.529Z,27.30
2018-02-05T01:28:16.087Z,27.40
2018-02-05T01:30:46.924Z,27.40
2018-02-05T01:33:17.715Z,27.50
2018-02-05T01:35:49.034Z,27.60
2018-02-05T01:38:19.588Z,27.60
2018-02-05T01:40:50.037Z,27.60
2018-02-05T01:43:21.284Z,27.70
2018-02-05T01:45:53.015Z,27.80
2018-02-05T01:48:23.443Z,27.70
2018-02-05T01:50:53.952Z,27.90
2018-02-05T01:53:24.449Z,27.80
2018-02-05T01:55:54.989Z,27.90
2018-02-05T01:58:25.999Z,27.90
2018-02-05T02:00:57.269Z,28.10
2018-02-05T02:03:29.801Z,28.00
2018-02-05T02:06:06.755Z,28.20
2018-02-05T02:08:37.875Z,28.20
2018-02-05T02:11:09.122Z,28.40
2018-02-05T02:13:39.650Z,28.40
2018-02-05T02:16:11.680Z,28.40
2018-02-05T02:18:42.529Z,28.40
2018-02-05T02:21:13.026Z,28.50
2018-02-05T02:23:44.355Z,28.50
2018-02-05T02:26:16.046Z,28.50
2018-02-05T02:28:47.416Z,28.60
2018-02-05T02:31:17.895Z,28.60
2018-02-05T02:33:49.870Z,28.60
2018-02-05T02:36:21.198Z,28.70
2018-02-05T02:38:52.527Z,28.70
2018-02-05T02:41:23.315Z,28.70
2018-02-05T02:43:53.833Z,28.80
2018-02-05T02:46:25.492Z,29.00
2018-02-05T02:48:56.706Z,29.00
2018-02-05T02:51:27.185Z,29.00
2018-02-05T02:53:57.653Z,29.10
2018-02-05T02:56:28.158Z,29.20
2018-02-05T02:58:59.033Z,29.20
2018-02-05T03:01:29.494Z,29.30
2018-02-05T03:04:00.269Z,29.30
2018-02-05T03:06:30.727Z,29.40
2018-02-05T03:09:01.213Z,29.40
2018-02-05T03:11:31.724Z,29.50
2018-02-05T03:14:03.360Z,29.60
2018-02-05T03:16:34.955Z,29.60
2018-02-05T03:19:06.826Z,29.60
2018-02-05T03:21:37.337Z,29.70
2018-02-05T03:24:07.897Z,29.70
2018-02-05T03:26:38.722Z,29.80
2018-02-05T03:29:09.274Z,29.80
2018-02-05T03:31:40.459Z,29.90
2018-02-05T03:34:11.281Z,30.00
2018-02-05T03:36:42.533Z,30.10
2018-02-05T03:39:13.907Z,30.10
2018-02-05T03:41:44.399Z,30.20
2018-02-05T03:44:15.650Z,30.30
2018-02-05T03:46:46.367Z,30.20
2018-02-05T03:49:17.662Z,30.20
2018-02-05T03:51:48.523Z,30.20
2018-02-05T03:54:19.010Z,30.30
2018-02-05T03:56:50.561Z,30.30
2018-02-05T03:59:21.098Z,30.30
2018-02-05T04:01:51.895Z,30.40
2018-02-05T04:04:22.914Z,30.40
2018-02-05T04:06:59.857Z,30.50
2018-02-05T04:09:30.715Z,30.60
2018-02-05T04:12:01.438Z,30.60
2018-02-05T04:14:31.918Z,30.70
2018-02-05T04:17:03.582Z,30.80
2018-02-05T04:19:34.269Z,30.80
2018-02-05T04:22:06.141Z,30.80
2018-02-05T04:24:36.659Z,30.80
2018-02-05T04:27:08.455Z,30.90
2018-02-05T04:29:39.814Z,31.00
2018-02-05T04:32:11.149Z,31.00
2018-02-05T04:34:45.769Z,31.00
2018-02-05T04:37:17.746Z,31.10
2018-02-05T04:39:48.800Z,31.00
2018-02-05T04:42:19.222Z,31.10
2018-02-05T04:44:49.710Z,31.20
2018-02-05T04:47:21.789Z,31.10
2018-02-05T04:49:54.557Z,31.20
2018-02-05T04:52:25.081Z,31.20
2018-02-05T04:54:55.978Z,31.30
2018-02-05T04:57:26.851Z,31.40
2018-02-05T04:59:58.332Z,31.40
2018-02-05T05:02:29.579Z,31.40
2018-02-05T05:05:01.870Z,31.40
2018-02-05T05:07:32.386Z,31.40
2018-02-05T05:10:04.366Z,31.60
2018-02-05T05:12:35.198Z,31.60
2018-02-05T05:15:05.726Z,31.70
2018-02-05T05:17:36.941Z,31.70
2018-02-05T05:20:09.901Z,31.70
2018-02-05T05:22:40.466Z,31.70
2018-02-05T05:25:11.628Z,31.70
2018-02-05T05:27:44.799Z,31.70
2018-02-05T05:30:15.971Z,31.90
2018-02-05T05:32:46.745Z,31.90
2018-02-05T05:35:18.012Z,31.90
2018-02-05T05:37:49.649Z,31.90
2018-02-05T05:40:20.042Z,31.90
2018-02-05T05:42:51.782Z,31.90
2018-02-05T05:45:26.074Z,32.00
2018-02-05T05:47:57.189Z,32.00
2018-02-05T05:50:28.105Z,32.00
2018-02-05T05:52:58.880Z,32.00
2018-02-05T05:55:31.762Z,32.00
2018-02-05T05:58:03.010Z,32.00
2018-02-05T06:00:36.287Z,32.10
2018-02-05T06:03:07.455Z,32.10
2018-02-05T06:05:39.387Z,32.20
2018-02-05T06:08:10.697Z,32.10
2018-02-05T06:10:41.549Z,32.10
2018-02-05T06:13:12.069Z,32.20
2018-02-05T06:15:42.807Z,32.20
2018-02-05T06:18:16.834Z,32.20
2018-02-05T06:20:47.882Z,32.20
2018-02-05T06:23:18.356Z,32.20
2018-02-05T06:25:48.885Z,32.30
2018-02-05T06:28:21.971Z,32.30
2018-02-05T06:30:54.450Z,32.20
2018-02-05T06:33:26.134Z,32.20
2018-02-05T06:35:59.746Z,32.20
2018-02-05T06:38:30.881Z,32.30
2018-02-05T06:41:02.577Z,32.30
2018-02-05T06:43:32.998Z,32.30
2018-02-05T06:46:03.514Z,32.30
2018-02-05T06:48:34.801Z,32.40
2018-02-05T06:51:17.707Z,32.40
2018-02-05T06:53:59.712Z,32.40
2018-02-05T06:56:30.981Z,32.40
2018-02-05T06:59:03.443Z,32.40
2018-02-05T07:01:34.223Z,32.50
2018-02-05T07:04:05.961Z,32.50
2018-02-05T07:06:36.714Z,32.50
2018-02-05T07:09:10.573Z,32.60
2018-02-05T07:11:45.551Z,32.60
2018-02-05T07:14:18.544Z,32.60
2018-02-05T07:16:50.372Z,32.60
2018-02-05T07:19:21.475Z,32.60
2018-02-05T07:21:53.784Z,32.60
2018-02-05T07:24:24.245Z,32.60
2018-02-05T07:26:55.019Z,32.60
2018-02-05T07:29:27.896Z,32.70
2018-02-05T07:32:01.070Z,32.70
2018-02-05T07:34:32.652Z,32.60
2018-02-05T07:37:05.430Z,32.60
2018-02-05T07:39:37.953Z,32.60
2018-02-05T07:42:08.491Z,32.60
2018-02-05T07:44:39.636Z,32.60
2018-02-05T07:47:12.974Z,32.70
2018-02-05T07:49:44.779Z,32.70
2018-02-05T07:52:16.219Z,32.70
2018-02-05T07:54:46.985Z,32.70
2018-02-05T07:57:17.863Z,32.70
2018-02-05T07:59:48.473Z,32.80
2018-02-05T08:02:20.237Z,32.80
2018-02-05T08:04:52.361Z,32.80
2018-02-05T08:07:23.474Z,32.80
2018-02-05T08:09:53.929Z,32.80
2018-02-05T08:12:25.064Z,32.70
2018-02-05T08:14:56.662Z,32.60
2018-02-05T08:17:28.297Z,32.60
2018-02-05T08:20:00.186Z,32.50
2018-02-05T08:22:34.322Z,32.50
2018-02-05T08:25:06.369Z,32.50
2018-02-05T08:27:38.108Z,32.60
2018-02-05T08:30:11.355Z,32.60
2018-02-05T08:32:43.686Z,32.60
2018-02-05T08:35:15.984Z,32.60
2018-02-05T08:37:49.050Z,32.60
2018-02-05T08:40:20.580Z,32.60
2018-02-05T08:42:51.310Z,32.60
2018-02-05T08:45:21.935Z,32.60
2018-02-05T08:47:53.509Z,32.60
2018-02-05T08:50:26.190Z,32.60
2018-02-05T08:52:58.516Z,32.50
2018-02-05T08:55:29.591Z,32.50
2018-02-05T08:58:01.678Z,32.50
2018-02-05T09:00:34.269Z,32.50
2018-02-05T09:03:06.658Z,32.50
2018-02-05T09:05:39.662Z,32.50
2018-02-05T09:08:10.184Z,32.50
2018-02-05T09:10:40.618Z,32.50
2018-02-05T09:13:12.103Z,32.40
2018-02-05T09:15:44.263Z,32.30
2018-02-05T09:18:17.417Z,32.30
2018-02-05T09:20:48.797Z,32.20
2018-02-05T09:23:20.585Z,32.20
2018-02-05T09:25:51.818Z,32.20
2018-02-05T09:28:25.409Z,32.20
2018-02-05T09:30:55.862Z,32.20
2018-02-05T09:33:27.966Z,32.10
2018-02-05T09:35:58.985Z,32.10
2018-02-05T09:38:29.471Z,32.10
2018-02-05T09:40:59.947Z,32.10
2018-02-05T09:43:30.431Z,32.00
2018-02-05T09:46:02.005Z,32.00
2018-02-05T09:48:32.500Z,32.00
2018-02-05T09:51:04.314Z,32.00
2018-02-05T09:53:35.914Z,32.00
2018-02-05T09:56:07.684Z,32.00
2018-02-05T09:58:42.996Z,31.90
2018-02-05T10:01:15.138Z,31.90
2018-02-05T10:03:45.595Z,31.90
2018-02-05T10:06:16.077Z,31.90
2018-02-05T10:08:46.462Z,31.80
2018-02-05T10:11:16.944Z,31.80
2018-02-05T10:13:47.939Z,31.70
2018-02-05T10:16:18.676Z,31.70
2018-02-05T10:18:50.231Z,31.50
2018-02-05T10:21:21.466Z,31.50
2018-02-05T10:23:53.833Z,31.50
2018-02-05T10:26:24.274Z,31.40
2018-02-05T10:28:58.681Z,31.20
2018-02-05T10:31:29.462Z,31.20
2018-02-05T10:34:00.137Z,31.10
2018-02-05T10:36:31.820Z,31.10
2018-02-05T10:39:04.394Z,30.90
2018-02-05T10:41:35.809Z,30.80
2018-02-05T10:44:07.364Z,30.80
2018-02-05T10:46:38.566Z,30.80
2018-02-05T10:49:10.338Z,30.80
2018-02-05T10:51:42.278Z,30.80
2018-02-05T10:54:12.751Z,30.70
2018-02-05T10:56:43.138Z,30.60
2018-02-05T10:59:14.672Z,30.60
2018-02-05T11:01:46.496Z,30.50
2018-02-05T11:04:16.987Z,30.50
2018-02-05T11:06:47.425Z,30.50
2018-02-05T11:09:17.914Z,30.40
2018-02-05T11:11:49.082Z,30.30
2018-02-05T11:14:19.463Z,30.30
2018-02-05T11:16:51.554Z,30.30
2018-02-05T11:19:23.091Z,30.20
2018-02-05T11:21:54.330Z,30.20
2018-02-05T11:24:26.774Z,30.10
2018-02-05T11:26:57.225Z,30.10
2018-02-05T11:29:30.604Z,30.10
2018-02-05T11:32:01.355Z,30.00
2018-02-05T11:34:31.834Z,30.00
2018-02-05T11:37:02.221Z,29.90
2018-02-05T11:39:33.436Z,29.90
2018-02-05T11:42:03.926Z,29.80
2018-02-05T11:44:34.361Z,29.90
2018-02-05T11:47:05.441Z,29.90
2018-02-05T11:52:10.905Z,31.50
2018-02-05T11:55:08.895Z,31.20
2018-02-05T11:57:44.385Z,30.20
2018-02-05T12:00:15.842Z,30.20
2018-02-05T12:02:46.521Z,30.00
2018-02-05T12:05:17.722Z,29.80
2018-02-05T12:07:49.126Z,29.80
2018-02-05T12:10:23.747Z,29.80
2018-02-05T12:12:54.988Z,29.90
2018-02-05T12:15:26.897Z,29.90
2018-02-05T12:17:58.349Z,29.80
2018-02-05T12:20:28.831Z,29.80
2018-02-05T12:23:00.461Z,29.80
2018-02-05T12:25:31.913Z,29.80
2018-02-05T12:28:02.686Z,29.80
2018-02-05T12:30:39.856Z,29.70
2018-02-05T12:33:11.231Z,29.70
2018-02-05T12:35:42.605Z,29.70
2018-02-05T12:38:13.354Z,29.70
2018-02-05T12:40:46.979Z,29.70
2018-02-05T12:43:18.778Z,29.80
2018-02-05T12:45:49.292Z,29.80
2018-02-05T12:48:21.363Z,29.80
2018-02-05T12:50:51.857Z,29.80
2018-02-05T12:53:22.715Z,29.80
2018-02-05T12:55:56.553Z,29.70
2018-02-05T12:58:39.550Z,29.70
2018-02-05T13:01:15.225Z,29.70
2018-02-05T13:03:53.922Z,29.70
2018-02-05T13:06:26.903Z,29.70
2018-02-05T13:08:59.155Z,29.70
2018-02-05T13:11:30.710Z,29.70
2018-02-05T13:14:02.302Z,29.70
2018-02-05T13:16:34.480Z,29.70
2018-02-05T13:19:05.557Z,29.70
2018-02-05T13:21:36.289Z,29.70
2018-02-05T13:24:12.958Z,29.70
2018-02-05T13:26:44.636Z,29.60
2018-02-05T13:29:15.897Z,29.50
2018-02-05T13:31:48.157Z,29.50
2018-02-05T13:34:21.399Z,29.40
2018-02-05T13:36:54.633Z,29.40
2018-02-05T13:39:27.726Z,29.30
2018-02-05T13:42:00.409Z,29.30
2018-02-05T13:44:34.820Z,29.20
2018-02-05T13:47:06.086Z,29.20
2018-02-05T13:49:38.009Z,29.20
2018-02-05T13:52:08.522Z,29.10
2018-02-05T13:54:41.491Z,29.10
2018-02-05T13:57:12.797Z,29.10
2018-02-05T13:59:47.824Z,29.00
2018-02-05T14:02:21.038Z,28.90
2018-02-05T14:04:53.103Z,28.90
2018-02-05T14:07:29.480Z,28.80
2018-02-05T14:10:02.301Z,28.80
2018-02-05T14:12:34.937Z,28.70
2018-02-05T14:15:10.043Z,28.60
2018-02-05T14:17:42.027Z,28.60
2018-02-05T14:20:16.190Z,28.60
2018-02-05T14:22:46.983Z,28.60
2018-02-05T14:25:20.218Z,28.70
2018-02-05T14:27:51.018Z,28.70
2018-02-05T14:30:23.414Z,28.60
2018-02-05T14:32:55.695Z,28.60
2018-02-05T14:35:27.133Z,28.70
2018-02-05T14:37:59.770Z,28.70
2018-02-05T14:40:31.976Z,28.60
2018-02-05T14:43:03.406Z,28.60
2018-02-05T14:45:33.856Z,28.60
2018-02-05T14:48:07.934Z,28.50
2018-02-05T14:50:41.177Z,28.50
2018-02-05T14:53:12.543Z,28.50
2018-02-05T14:55:46.658Z,28.40
2018-02-05T14:58:20.766Z,28.40
2018-02-05T15:00:51.773Z,28.40
2018-02-05T15:03:23.167Z,28.30
2018-02-05T15:05:54.864Z,28.30
2018-02-05T15:08:26.453Z,28.30
2018-02-05T15:10:57.039Z,28.30
2018-02-05T15:13:27.554Z,28.30
2018-02-05T15:16:02.655Z,28.30
2018-02-05T15:18:33.526Z,28.30
2018-02-05T15:21:05.301Z,28.20
2018-02-05T15:23:35.832Z,28.20
2018-02-05T15:26:07.337Z,28.20
2018-02-05T15:28:38.719Z,28.20
2018-02-05T15:31:09.889Z,28.20
2018-02-05T15:33:41.883Z,28.20
2018-02-05T15:36:12.370Z,28.20
2018-02-05T15:38:43.185Z,28.20
2018-02-05T15:41:14.457Z,28.10
2018-02-05T15:43:45.866Z,28.10
2018-02-05T15:46:18.217Z,28.10
2018-02-05T15:48:49.436Z,28.10
2018-02-05T15:51:20.885Z,28.10
2018-02-05T15:53:51.308Z,28.10
2018-02-05T15:56:21.754Z,28.10
2018-02-05T15:58:53.036Z,28.00
2018-02-05T16:01:24.621Z,27.90
2018-02-05T16:03:57.003Z,27.90
2018-02-05T16:06:28.600Z,27.90
2018-02-05T16:08:59.410Z,27.80
2018-02-05T16:11:30.370Z,27.80
2018-02-05T16:14:02.072Z,27.80
2018-02-05T16:16:33.808Z,27.80
2018-02-05T16:19:05.041Z,27.70
2018-02-05T16:21:36.805Z,27.70
2018-02-05T16:24:08.659Z,27.70
2018-02-05T16:26:39.956Z,27.70
2018-02-05T16:29:10.446Z,27.70
2018-02-05T16:31:41.618Z,27.70
2018-02-05T16:34:12.496Z,27.60
2018-02-05T16:36:43.343Z,27.70
2018-02-05T16:39:15.157Z,27.70
2018-02-05T16:41:47.905Z,27.60
2018-02-05T16:44:19.538Z,27.70
2018-02-05T16:46:51.516Z,27.60
2018-02-05T16:49:23.897Z,27.60
2018-02-05T16:51:55.440Z,27.60
2018-02-05T16:54:27.612Z,27.50
2018-02-05T16:56:59.620Z,27.50
2018-02-05T16:59:30.393Z,27.50
2018-02-05T17:02:02.675Z,27.40
2018-02-05T17:04:35.816Z,27.40
2018-02-05T17:07:06.706Z,27.40
2018-02-05T17:09:38.669Z,27.40
2018-02-05T17:12:10.783Z,27.40
2018-02-05T17:14:41.969Z,27.30
2018-02-05T17:17:16.337Z,27.30
2018-02-05T17:19:46.783Z,27.30
2018-02-05T17:22:18.407Z,27.30
2018-02-05T17:24:50.786Z,27.20
2018-02-05T17:27:22.239Z,27.20
2018-02-05T17:29:53.582Z,27.20
2018-02-05T17:32:25.253Z,27.20
2018-02-05T17:34:58.437Z,27.30
2018-02-05T17:37:28.996Z,27.20
2018-02-05T17:40:00.520Z,27.20
2018-02-05T17:42:30.952Z,27.20
2018-02-05T17:45:03.294Z,27.10
2018-02-05T17:47:34.116Z,27.10
2018-02-05T17:50:05.398Z,27.10
2018-02-05T17:52:36.326Z,27.00
2018-02-05T17:55:06.824Z,27.10
2018-02-05T17:57:39.131Z,27.00
2018-02-05T18:00:09.765Z,27.00
2018-02-05T18:02:41.481Z,27.00
2018-02-05T18:05:13.862Z,26.90
2018-02-05T18:07:46.516Z,26.90
2018-02-05T18:10:19.598Z,26.90
2018-02-05T18:12:51.041Z,26.90
2018-02-05T18:15:21.481Z,26.90
2018-02-05T18:17:55.744Z,26.80
2018-02-05T18:20:27.172Z,26.80
2018-02-05T18:22:58.473Z,26.80
2018-02-05T18:25:29.187Z,26.80
2018-02-05T18:28:00.541Z,26.80
2018-02-05T18:30:31.435Z,26.80
2018-02-05T18:33:02.666Z,26.70
2018-02-05T18:35:34.411Z,26.70
2018-02-05T18:38:05.952Z,26.70
2018-02-05T18:40:36.459Z,26.60
2018-02-05T18:43:08.086Z,26.60
2018-02-05T18:45:38.633Z,26.60
2018-02-05T18:48:10.668Z,26.60
2018-02-05T18:50:42.043Z,26.60
2018-02-05T18:53:12.861Z,26.60
2018-02-05T18:55:43.418Z,26.60
2018-02-05T18:58:14.001Z,26.60
2018-02-05T19:00:59.479Z,26.60
2018-02-05T19:03:30.807Z,26.50
2018-02-05T19:06:02.672Z,26.50
2018-02-05T19:08:34.668Z,26.40
2018-02-05T19:11:06.600Z,26.40
2018-02-05T19:13:38.226Z,26.30
2018-02-05T19:16:10.381Z,26.20
2018-02-05T19:18:41.378Z,26.20
2018-02-05T19:21:13.063Z,26.10
2018-02-05T19:23:45.233Z,26.10
2018-02-05T19:26:18.283Z,26.10
2018-02-05T19:28:50.494Z,26.00
2018-02-05T19:31:22.225Z,26.00
2018-02-05T19:33:52.861Z,26.00
2018-02-05T19:36:24.411Z,25.90
2018-02-05T19:38:54.955Z,26.00
2018-02-05T19:41:26.780Z,26.00
2018-02-05T19:43:59.769Z,26.00
2018-02-05T19:46:31.929Z,25.90
2018-02-05T19:49:04.694Z,25.90
2018-02-05T19:51:36.442Z,25.90
2018-02-05T19:54:07.273Z,26.00
2018-02-05T19:56:38.705Z,26.00
2018-02-05T19:59:09.608Z,26.00
2018-02-05T20:01:41.251Z,26.00
2018-02-05T20:04:13.475Z,26.00
2018-02-05T20:06:44.046Z,25.90
2018-02-05T20:09:15.326Z,26.00
2018-02-05T20:11:45.861Z,26.00
2018-02-05T20:14:16.639Z,26.00
2018-02-05T20:16:47.217Z,26.00
2018-02-05T20:19:19.646Z,25.90
2018-02-05T20:21:50.338Z,25.90
2018-02-05T20:24:20.874Z,25.90
2018-02-05T20:26:51.417Z,25.80
2018-02-05T20:29:21.961Z,25.80
2018-02-05T20:31:52.957Z,25.80
2018-02-05T20:34:23.510Z,25.80
2018-02-05T20:36:54.314Z,25.80
2018-02-05T20:39:24.844Z,25.90
2018-02-05T20:41:55.316Z,25.80
2018-02-05T20:44:25.774Z,25.80
2018-02-05T20:46:57.874Z,25.90
2018-02-05T20:49:29.416Z,25.90
2018-02-05T20:51:59.966Z,25.90
2018-02-05T20:54:30.439Z,26.00
2018-02-05T20:57:01.746Z,25.90
2018-02-05T20:59:32.245Z,25.90
2018-02-05T21:02:03.130Z,25.90
2018-02-05T21:04:33.628Z,25.90
2018-02-05T21:07:04.607Z,25.90
2018-02-05T21:09:35.074Z,25.90
2018-02-05T21:12:05.574Z,25.90
2018-02-05T21:14:37.165Z,25.80
2018-02-05T21:17:07.642Z,25.80
2018-02-05T21:19:39.045Z,25.80
2018-02-05T21:22:09.511Z,25.80
2018-02-05T21:24:40.060Z,25.80
2018-02-05T21:27:10.591Z,25.70
2018-02-05T21:29:41.154Z,25.70
2018-02-05T21:32:12.745Z,25.80
2018-02-05T21:34:43.295Z,25.80
2018-02-05T21:37:14.938Z,25.80
2018-02-05T21:39:48.541Z,25.80
2018-02-05T21:42:19.041Z,25.80
2018-02-05T21:44:49.573Z,25.80
2018-02-05T21:47:20.054Z,25.80
2018-02-05T21:49:51.605Z,25.80
2018-02-05T21:52:22.897Z,25.70
2018-02-05T21:54:53.352Z,25.70
2018-02-05T21:57:23.842Z,25.70
2018-02-05T21:59:54.333Z,25.80
2018-02-05T22:02:26.825Z,25.70
2018-02-05T22:04:57.368Z,25.70
2018-02-05T22:07:28.268Z,25.70
2018-02-05T22:09:59.533Z,25.70
2018-02-05T22:12:30.366Z,25.60
2018-02-05T22:15:01.938Z,25.60
2018-02-05T22:17:32.415Z,25.50
2018-02-05T22:20:03.254Z,25.50
2018-02-05T22:22:33.809Z,25.50
2018-02-05T22:25:05.077Z,25.50
2018-02-05T22:27:38.275Z,25.50
2018-02-05T22:30:09.115Z,25.60
2018-02-05T22:32:39.551Z,25.60
2018-02-05T22:35:10.144Z,25.60
2018-02-05T22:37:40.834Z,25.60
2018-02-05T22:40:11.367Z,25.60
2018-02-05T22:42:41.822Z,25.60
2018-02-05T22:45:13.057Z,25.70
2018-02-05T22:47:44.121Z,25.60
2018-02-05T22:50:15.006Z,25.70
2018-02-05T22:52:45.467Z,25.70
2018-02-05T22:55:16.973Z,25.70
2018-02-05T22:57:47.447Z,25.70
2018-02-05T23:00:19.643Z,25.70
2018-02-05T23:02:50.143Z,25.70
2018-02-05T23:05:20.652Z,25.70
2018-02-05T23:07:53.277Z,25.70
2018-02-05T23:10:23.832Z,25.60
2018-02-05T23:12:54.305Z,25.60
2018-02-05T23:15:25.557Z,25.60
2018-02-05T23:17:56.775Z,25.60
2018-02-05T23:20:27.477Z,25.60
2018-02-05T23:22:57.922Z,25.70
2018-02-05T23:25:29.574Z,25.60
2018-02-05T23:28:00.111Z,25.70
2018-02-05T23:30:30.621Z,25.70
2018-02-05T23:33:01.111Z,25.70
2018-02-05T23:35:31.666Z,25.70
2018-02-05T23:38:02.380Z,25.70
2018-02-05T23:40:32.922Z,25.70
2018-02-05T23:43:03.414Z,25.70
2018-02-05T23:45:35.312Z,25.60
2018-02-05T23:48:06.170Z,25.60
2018-02-05T23:50:37.974Z,25.60
2018-02-05T23:53:09.217Z,25.50
2018-02-05T23:55:41.798Z,25.50
2018-02-05T23:58:13.826Z,25.60
